NRT457 KIAH-KMSY
Flight info
| Callsign | NRT457 |
|---|---|
| Flight time | N/A |
| Altitude | 23000 |
| Route | GUMBY3 GUSTI AWDAD AWDAD1 |
| Aircraft | B738/M-SDE2E3FGHIRWXY/LB1 |
Departure
| Time | 2026-05-04 18:57 |
|---|---|
| Airport | George Bush Intercontinental Airport (KIAH) |
Arrival
| Time | N/A |
|---|---|
| Airport | Louis Armstrong New Orleans International Airport (KMSY) |
| Time | Latitude | Longitude | Altitude | Speed | Heading |
|---|---|---|---|---|---|
| 2026-05-04 18:33 | 29.98931 | -95.33804 | 101 ft | 0 kts | 279° |
| 2026-05-04 18:48 | 29.98928 | -95.33789 | 101 ft | 2 kts | 289° |
| 2026-05-04 18:49 | 29.98922 | -95.33774 | 101 ft | 2 kts | 302° |
| 2026-05-04 18:49 | 29.98913 | -95.33760 | 101 ft | 2 kts | 315° |
| 2026-05-04 18:49 | 29.98901 | -95.33749 | 101 ft | 2 kts | 328° |
| 2026-05-04 18:49 | 29.98888 | -95.33742 | 101 ft | 2 kts | 341° |
| 2026-05-04 18:50 | 29.98875 | -95.33738 | 101 ft | 0 kts | 353° |
| 2026-05-04 18:50 | 29.98869 | -95.33737 | 101 ft | 0 kts | 355° |
| 2026-05-04 18:52 | 29.98882 | -95.33737 | 101 ft | 7 kts | 4° |
| 2026-05-04 18:52 | 29.98979 | -95.33723 | 101 ft | 18 kts | 7° |
| 2026-05-04 18:52 | 29.99082 | -95.33760 | 101 ft | 16 kts | 290° |
| 2026-05-04 18:53 | 29.99089 | -95.33900 | 101 ft | 20 kts | 269° |
| 2026-05-04 18:53 | 29.99088 | -95.34095 | 101 ft | 27 kts | 269° |
| 2026-05-04 18:53 | 29.99085 | -95.34334 | 101 ft | 29 kts | 271° |
| 2026-05-04 18:53 | 29.99087 | -95.34567 | 101 ft | 28 kts | 270° |
| 2026-05-04 18:54 | 29.99088 | -95.34797 | 101 ft | 28 kts | 270° |
| 2026-05-04 18:54 | 29.99087 | -95.35028 | 98 ft | 28 kts | 269° |
| 2026-05-04 18:54 | 29.99086 | -95.35255 | 100 ft | 27 kts | 268° |
| 2026-05-04 18:54 | 29.99074 | -95.35454 | 99 ft | 20 kts | 229° |
| 2026-05-04 18:55 | 29.98941 | -95.35490 | 98 ft | 17 kts | 199° |
| 2026-05-04 18:55 | 29.98829 | -95.35677 | 98 ft | 0 kts | 242° |
| 2026-05-04 18:56 | 29.98828 | -95.35679 | 98 ft | 1 kts | 241° |
| 2026-05-04 18:56 | 29.98789 | -95.35747 | 98 ft | 16 kts | 215° |
| 2026-05-04 18:56 | 29.98681 | -95.35722 | 98 ft | 21 kts | 153° |
| 2026-05-04 18:57 | 29.98298 | -95.35489 | 98 ft | 102 kts | 153° |
| 2026-05-04 18:57 | 29.97456 | -95.34969 | 114 ft | 166 kts | 154° |
| 2026-05-04 18:57 | 29.96419 | -95.34326 | 843 ft | 174 kts | 152° |
| 2026-05-04 18:57 | 29.95478 | -95.33399 | 1578 ft | 193 kts | 131° |
| 2026-05-04 18:58 | 29.94677 | -95.32104 | 2261 ft | 207 kts | 128° |
| 2026-05-04 18:58 | 29.93789 | -95.30756 | 2968 ft | 220 kts | 133° |
| 2026-05-04 18:58 | 29.92786 | -95.29369 | 3645 ft | 234 kts | 133° |
| 2026-05-04 18:58 | 29.91681 | -95.27862 | 3956 ft | 256 kts | 133° |
| 2026-05-04 18:59 | 29.90527 | -95.26263 | 3981 ft | 263 kts | 132° |
| 2026-05-04 18:59 | 29.89360 | -95.24627 | 4213 ft | 266 kts | 132° |
| 2026-05-04 18:59 | 29.88174 | -95.22907 | 4623 ft | 278 kts | 129° |
| 2026-05-04 18:59 | 29.87031 | -95.21091 | 5031 ft | 281 kts | 127° |
| 2026-05-04 19:00 | 29.85902 | -95.19222 | 5438 ft | 285 kts | 127° |
| 2026-05-04 19:00 | 29.84766 | -95.17360 | 5845 ft | 289 kts | 128° |
| 2026-05-04 19:00 | 29.83593 | -95.15464 | 6255 ft | 291 kts | 127° |
| 2026-05-04 19:00 | 29.82557 | -95.13440 | 6668 ft | 296 kts | 115° |
| 2026-05-04 19:01 | 29.82062 | -95.11138 | 7084 ft | 304 kts | 96° |
| 2026-05-04 19:01 | 29.81980 | -95.08686 | 7498 ft | 306 kts | 90° |
| 2026-05-04 19:01 | 29.81989 | -95.06225 | 7911 ft | 307 kts | 90° |
| 2026-05-04 19:01 | 29.81968 | -95.03732 | 8320 ft | 309 kts | 91° |
| 2026-05-04 19:02 | 29.81900 | -95.01266 | 8740 ft | 313 kts | 91° |
| 2026-05-04 19:02 | 29.81822 | -94.98749 | 9154 ft | 315 kts | 89° |
| 2026-05-04 19:02 | 29.81897 | -94.96214 | 9572 ft | 317 kts | 84° |
| 2026-05-04 19:02 | 29.82089 | -94.93655 | 9994 ft | 330 kts | 82° |
| 2026-05-04 19:03 | 29.82335 | -94.90955 | 10407 ft | 345 kts | 82° |
| 2026-05-04 19:03 | 29.82586 | -94.88178 | 10814 ft | 352 kts | 82° |
| 2026-05-04 19:03 | 29.82832 | -94.85326 | 11225 ft | 356 kts | 82° |
| 2026-05-04 19:03 | 29.83066 | -94.82494 | 11635 ft | 354 kts | 82° |
| 2026-05-04 19:04 | 29.83283 | -94.79759 | 12037 ft | 332 kts | 82° |
| 2026-05-04 19:04 | 29.83490 | -94.77116 | 12451 ft | 330 kts | 82° |
| 2026-05-04 19:04 | 29.83702 | -94.74493 | 12862 ft | 334 kts | 81° |
| 2026-05-04 19:04 | 29.83918 | -94.71816 | 13271 ft | 335 kts | 81° |
| 2026-05-04 19:05 | 29.84133 | -94.69128 | 13677 ft | 338 kts | 81° |
| 2026-05-04 19:05 | 29.84349 | -94.66402 | 14089 ft | 343 kts | 81° |
| 2026-05-04 19:05 | 29.84566 | -94.63663 | 14495 ft | 345 kts | 81° |
| 2026-05-04 19:05 | 29.84784 | -94.60902 | 14907 ft | 348 kts | 81° |
| 2026-05-04 19:06 | 29.84786 | -94.60864 | 14912 ft | 348 kts | 81° |
| 2026-05-04 19:06 | 29.84963 | -94.58611 | 15245 ft | 350 kts | 81° |
| 2026-05-04 19:06 | 29.85152 | -94.55844 | 15524 ft | 344 kts | 82° |
| 2026-05-04 19:06 | 29.85316 | -94.52978 | 14683 ft | 376 kts | 83° |
| 2026-05-04 19:07 | 29.85420 | -94.49889 | 13798 ft | 404 kts | 86° |
| 2026-05-04 19:07 | 29.85368 | -94.46585 | 13357 ft | 416 kts | 91° |
| 2026-05-04 19:07 | 29.85326 | -94.43264 | 13194 ft | 413 kts | 81° |
| 2026-05-04 19:07 | 29.86101 | -94.40164 | 13333 ft | 391 kts | 59° |
| 2026-05-04 19:08 | 29.87644 | -94.37763 | 13657 ft | 363 kts | 34° |
| 2026-05-04 19:08 | 29.89874 | -94.36749 | 13534 ft | 337 kts | 357° |
| 2026-05-04 19:08 | 29.92095 | -94.36948 | 13877 ft | 314 kts | 344° |
| 2026-05-04 19:08 | 29.94151 | -94.37917 | 13053 ft | 329 kts | 322° |
| 2026-05-04 19:09 | 29.95946 | -94.39652 | 12227 ft | 348 kts | 315° |
| 2026-05-04 19:09 | 29.97744 | -94.41652 | 11231 ft | 371 kts | 314° |
| 2026-05-04 19:09 | 29.99086 | -94.44213 | 10369 ft | 382 kts | 284° |